sensor_id;sensor_type;location;lat;lon;timestamp;P1;durP1;ratioP1;P2;durP2;ratioP2
53931;SDS011;39844;52.496;13.482;2023-07-20T00:02:02;1.60;;;1.50;;
53931;SDS011;39844;52.496;13.482;2023-07-20T00:04:28;3.40;;;1.70;;
53931;SDS011;39844;52.496;13.482;2023-07-20T00:06:54;4.07;;;2.10;;
53931;SDS011;39844;52.496;13.482;2023-07-20T00:09:19;1.90;;;1.80;;
53931;SDS011;39844;52.496;13.482;2023-07-20T00:11:48;2.10;;;2.00;;
53931;SDS011;39844;52.496;13.482;2023-07-20T00:14:15;2.00;;;1.90;;
53931;SDS011;39844;52.496;13.482;2023-07-20T00:16:40;2.37;;;2.00;;
53931;SDS011;39844;52.496;13.482;2023-07-20T00:19:05;2.10;;;2.00;;
53931;SDS011;39844;52.496;13.482;2023-07-20T00:21:31;2.43;;;2.23;;
53931;SDS011;39844;52.496;13.482;2023-07-20T00:23:56;2.50;;;2.23;;
53931;SDS011;39844;52.496;13.482;2023-07-20T00:26:21;3.97;;;2.50;;
53931;SDS011;39844;52.496;13.482;2023-07-20T00:28:48;3.87;;;2.07;;
53931;SDS011;39844;52.496;13.482;2023-07-20T00:31:15;2.10;;;2.00;;
53931;SDS011;39844;52.496;13.482;2023-07-20T00:33:40;2.30;;;2.20;;
53931;SDS011;39844;52.496;13.482;2023-07-20T00:36:05;2.13;;;1.97;;
53931;SDS011;39844;52.496;13.482;2023-07-20T00:38:31;2.80;;;2.10;;
53931;SDS011;39844;52.496;13.482;2023-07-20T00:40:56;3.23;;;2.10;;
53931;SDS011;39844;52.496;13.482;2023-07-20T00:43:21;2.30;;;2.20;;
53931;SDS011;39844;52.496;13.482;2023-07-20T00:45:47;4.83;;;2.47;;
53931;SDS011;39844;52.496;13.482;2023-07-20T00:48:12;2.53;;;2.20;;
53931;SDS011;39844;52.496;13.482;2023-07-20T00:50:39;2.33;;;2.23;;
53931;SDS011;39844;52.496;13.482;2023-07-20T00:53:05;2.10;;;2.00;;
53931;SDS011;39844;52.496;13.482;2023-07-20T00:55:31;2.73;;;2.30;;
53931;SDS011;39844;52.496;13.482;2023-07-20T00:57:56;2.50;;;2.30;;
53931;SDS011;39844;52.496;13.482;2023-07-20T01:00:22;8.17;;;2.33;;
53931;SDS011;39844;52.496;13.482;2023-07-20T01:02:47;2.37;;;2.27;;
53931;SDS011;39844;52.496;13.482;2023-07-20T01:05:13;2.53;;;2.30;;
53931;SDS011;39844;52.496;13.482;2023-07-20T01:07:40;2.10;;;2.00;;
53931;SDS011;39844;52.496;13.482;2023-07-20T01:10:11;2.67;;;2.33;;
53931;SDS011;39844;52.496;13.482;2023-07-20T01:12:43;2.87;;;2.67;;
53931;SDS011;39844;52.496;13.482;2023-07-20T01:15:12;2.50;;;2.30;;
53931;SDS011;39844;52.496;13.482;2023-07-20T01:17:37;2.20;;;2.10;;
53931;SDS011;39844;52.496;13.482;2023-07-20T01:20:03;2.40;;;2.20;;
53931;SDS011;39844;52.496;13.482;2023-07-20T01:33:43;2.60;;;2.47;;
53931;SDS011;39844;52.496;13.482;2023-07-20T01:36:09;3.43;;;2.47;;
53931;SDS011;39844;52.496;13.482;2023-07-20T01:38:36;2.03;;;1.93;;
53931;SDS011;39844;52.496;13.482;2023-07-20T01:41:02;2.63;;;2.30;;
53931;SDS011;39844;52.496;13.482;2023-07-20T01:43:28;2.53;;;2.33;;
53931;SDS011;39844;52.496;13.482;2023-07-20T01:45:53;2.40;;;2.20;;
53931;SDS011;39844;52.496;13.482;2023-07-20T01:48:18;2.80;;;2.60;;
53931;SDS011;39844;52.496;13.482;2023-07-20T01:50:44;2.10;;;2.00;;
53931;SDS011;39844;52.496;13.482;2023-07-20T01:53:09;3.10;;;2.80;;
53931;SDS011;39844;52.496;13.482;2023-07-20T01:55:34;3.10;;;2.53;;
53931;SDS011;39844;52.496;13.482;2023-07-20T01:58:00;3.53;;;2.87;;
53931;SDS011;39844;52.496;13.482;2023-07-20T02:00:25;2.83;;;2.67;;
53931;SDS011;39844;52.496;13.482;2023-07-20T02:02:50;3.00;;;2.80;;
53931;SDS011;39844;52.496;13.482;2023-07-20T02:05:16;4.20;;;2.73;;
53931;SDS011;39844;52.496;13.482;2023-07-20T02:07:42;2.73;;;2.53;;
53931;SDS011;39844;52.496;13.482;2023-07-20T02:10:07;2.83;;;2.63;;
53931;SDS011;39844;52.496;13.482;2023-07-20T02:12:33;2.47;;;2.30;;
53931;SDS011;39844;52.496;13.482;2023-07-20T02:14:58;2.90;;;2.70;;
53931;SDS011;39844;52.496;13.482;2023-07-20T02:17:23;3.30;;;2.70;;
53931;SDS011;39844;52.496;13.482;2023-07-20T02:19:52;3.10;;;2.80;;
53931;SDS011;39844;52.496;13.482;2023-07-20T02:22:18;3.37;;;2.90;;
53931;SDS011;39844;52.496;13.482;2023-07-20T02:24:43;2.77;;;2.57;;
53931;SDS011;39844;52.496;13.482;2023-07-20T02:27:08;2.97;;;2.77;;
53931;SDS011;39844;52.496;13.482;2023-07-20T02:29:36;3.07;;;2.73;;
53931;SDS011;39844;52.496;13.482;2023-07-20T02:32:01;3.03;;;2.70;;
53931;SDS011;39844;52.496;13.482;2023-07-20T02:34:27;3.13;;;2.93;;
53931;SDS011;39844;52.496;13.482;2023-07-20T02:36:52;2.87;;;2.67;;
53931;SDS011;39844;52.496;13.482;2023-07-20T02:39:18;2.83;;;2.63;;
53931;SDS011;39844;52.496;13.482;2023-07-20T02:41:43;3.77;;;2.80;;
53931;SDS011;39844;52.496;13.482;2023-07-20T02:44:08;2.73;;;2.63;;
53931;SDS011;39844;52.496;13.482;2023-07-20T02:46:33;3.30;;;3.00;;
53931;SDS011;39844;52.496;13.482;2023-07-20T02:48:59;3.33;;;2.80;;
53931;SDS011;39844;52.496;13.482;2023-07-20T02:51:24;4.03;;;3.23;;
53931;SDS011;39844;52.496;13.482;2023-07-20T02:53:49;3.00;;;2.80;;
53931;SDS011;39844;52.496;13.482;2023-07-20T02:56:15;6.97;;;3.60;;
53931;SDS011;39844;52.496;13.482;2023-07-20T02:58:41;3.70;;;3.27;;
53931;SDS011;39844;52.496;13.482;2023-07-20T03:01:06;3.57;;;3.27;;
53931;SDS011;39844;52.496;13.482;2023-07-20T03:03:32;4.10;;;3.70;;
53931;SDS011;39844;52.496;13.482;2023-07-20T03:05:57;3.67;;;3.37;;
53931;SDS011;39844;52.496;13.482;2023-07-20T03:08:22;6.00;;;3.90;;
53931;SDS011;39844;52.496;13.482;2023-07-20T03:10:48;6.63;;;4.67;;
53931;SDS011;39844;52.496;13.482;2023-07-20T03:13:13;5.53;;;4.33;;
53931;SDS011;39844;52.496;13.482;2023-07-20T03:15:38;4.60;;;4.20;;
53931;SDS011;39844;52.496;13.482;2023-07-20T03:18:03;4.90;;;4.27;;
53931;SDS011;39844;52.496;13.482;2023-07-20T03:20:29;4.43;;;3.93;;
53931;SDS011;39844;52.496;13.482;2023-07-20T03:22:54;4.03;;;3.73;;
53931;SDS011;39844;52.496;13.482;2023-07-20T03:25:19;3.80;;;3.47;;
53931;SDS011;39844;52.496;13.482;2023-07-20T03:27:45;4.13;;;3.73;;
53931;SDS011;39844;52.496;13.482;2023-07-20T03:30:10;4.33;;;3.80;;
53931;SDS011;39844;52.496;13.482;2023-07-20T03:32:36;4.30;;;4.00;;
53931;SDS011;39844;52.496;13.482;2023-07-20T03:35:01;4.47;;;3.83;;
53931;SDS011;39844;52.496;13.482;2023-07-20T03:37:26;3.93;;;3.63;;
53931;SDS011;39844;52.496;13.482;2023-07-20T03:39:52;4.27;;;3.87;;
53931;SDS011;39844;52.496;13.482;2023-07-20T03:42:17;4.13;;;3.73;;
53931;SDS011;39844;52.496;13.482;2023-07-20T03:44:42;4.50;;;3.93;;
53931;SDS011;39844;52.496;13.482;2023-07-20T03:47:08;4.93;;;3.70;;
53931;SDS011;39844;52.496;13.482;2023-07-20T03:49:33;4.00;;;3.70;;
53931;SDS011;39844;52.496;13.482;2023-07-20T03:51:58;4.63;;;3.43;;
53931;SDS011;39844;52.496;13.482;2023-07-20T03:54:24;3.87;;;3.57;;
53931;SDS011;39844;52.496;13.482;2023-07-20T03:56:49;4.90;;;3.33;;
53931;SDS011;39844;52.496;13.482;2023-07-20T03:59:14;5.33;;;3.70;;
53931;SDS011;39844;52.496;13.482;2023-07-20T04:01:39;5.83;;;4.33;;
53931;SDS011;39844;52.496;13.482;2023-07-20T04:04:06;4.07;;;3.77;;
53931;SDS011;39844;52.496;13.482;2023-07-20T04:06:32;5.03;;;4.23;;
53931;SDS011;39844;52.496;13.482;2023-07-20T04:08:57;4.47;;;4.07;;
53931;SDS011;39844;52.496;13.482;2023-07-20T04:11:23;5.40;;;4.00;;
53931;SDS011;39844;52.496;13.482;2023-07-20T04:13:48;4.23;;;3.87;;
53931;SDS011;39844;52.496;13.482;2023-07-20T04:16:13;4.93;;;3.50;;
53931;SDS011;39844;52.496;13.482;2023-07-20T04:18:38;4.33;;;3.90;;
53931;SDS011;39844;52.496;13.482;2023-07-20T04:21:04;4.50;;;4.10;;
53931;SDS011;39844;52.496;13.482;2023-07-20T04:23:29;3.33;;;3.13;;
53931;SDS011;39844;52.496;13.482;2023-07-20T04:25:54;3.37;;;3.07;;
53931;SDS011;39844;52.496;13.482;2023-07-20T04:28:20;3.33;;;3.10;;
53931;SDS011;39844;52.496;13.482;2023-07-20T04:30:48;3.37;;;3.07;;
53931;SDS011;39844;52.496;13.482;2023-07-20T04:33:14;4.87;;;3.93;;
53931;SDS011;39844;52.496;13.482;2023-07-20T04:35:47;3.33;;;3.07;;
53931;SDS011;39844;52.496;13.482;2023-07-20T04:38:13;5.97;;;3.17;;
53931;SDS011;39844;52.496;13.482;2023-07-20T04:40:39;4.70;;;4.10;;
53931;SDS011;39844;52.496;13.482;2023-07-20T04:43:04;4.03;;;3.37;;
53931;SDS011;39844;52.496;13.482;2023-07-20T04:45:30;3.40;;;3.10;;
53931;SDS011;39844;52.496;13.482;2023-07-20T04:47:55;3.43;;;3.20;;
53931;SDS011;39844;52.496;13.482;2023-07-20T04:50:20;4.13;;;3.73;;
53931;SDS011;39844;52.496;13.482;2023-07-20T04:52:45;3.27;;;3.07;;
53931;SDS011;39844;52.496;13.482;2023-07-20T04:55:11;3.00;;;2.80;;
53931;SDS011;39844;52.496;13.482;2023-07-20T04:57:36;4.17;;;3.77;;
53931;SDS011;39844;52.496;13.482;2023-07-20T05:00:01;3.13;;;2.80;;
53931;SDS011;39844;52.496;13.482;2023-07-20T05:02:27;3.60;;;3.30;;
53931;SDS011;39844;52.496;13.482;2023-07-20T05:04:52;3.73;;;3.23;;
53931;SDS011;39844;52.496;13.482;2023-07-20T05:07:17;3.17;;;2.97;;
53931;SDS011;39844;52.496;13.482;2023-07-20T05:09:43;7.57;;;3.10;;
53931;SDS011;39844;52.496;13.482;2023-07-20T05:12:08;4.83;;;3.33;;
53931;SDS011;39844;52.496;13.482;2023-07-20T05:14:33;4.73;;;3.50;;
53931;SDS011;39844;52.496;13.482;2023-07-20T05:16:59;3.77;;;3.47;;
53931;SDS011;39844;52.496;13.482;2023-07-20T05:19:24;5.33;;;3.33;;
53931;SDS011;39844;52.496;13.482;2023-07-20T05:21:50;4.00;;;3.40;;
53931;SDS011;39844;52.496;13.482;2023-07-20T05:24:15;3.97;;;3.10;;
53931;SDS011;39844;52.496;13.482;2023-07-20T05:26:40;3.20;;;2.87;;
53931;SDS011;39844;52.496;13.482;2023-07-20T05:29:06;2.80;;;2.60;;
53931;SDS011;39844;52.496;13.482;2023-07-20T05:31:31;2.93;;;2.73;;
53931;SDS011;39844;52.496;13.482;2023-07-20T05:33:56;2.53;;;2.33;;
53931;SDS011;39844;52.496;13.482;2023-07-20T05:36:22;2.67;;;2.47;;
53931;SDS011;39844;52.496;13.482;2023-07-20T05:38:47;3.10;;;2.70;;
53931;SDS011;39844;52.496;13.482;2023-07-20T05:41:12;2.33;;;2.23;;
53931;SDS011;39844;52.496;13.482;2023-07-20T05:43:38;2.50;;;2.30;;
53931;SDS011;39844;52.496;13.482;2023-07-20T05:46:03;2.27;;;2.17;;
53931;SDS011;39844;52.496;13.482;2023-07-20T05:48:28;2.47;;;2.27;;
53931;SDS011;39844;52.496;13.482;2023-07-20T05:50:53;2.47;;;2.20;;
53931;SDS011;39844;52.496;13.482;2023-07-20T05:53:21;2.70;;;2.30;;
53931;SDS011;39844;52.496;13.482;2023-07-20T05:55:51;2.70;;;2.50;;
53931;SDS011;39844;52.496;13.482;2023-07-20T05:58:17;2.50;;;2.30;;
53931;SDS011;39844;52.496;13.482;2023-07-20T06:00:42;2.50;;;2.40;;
53931;SDS011;39844;52.496;13.482;2023-07-20T06:03:08;2.70;;;2.50;;
53931;SDS011;39844;52.496;13.482;2023-07-20T06:05:33;3.93;;;2.83;;
53931;SDS011;39844;52.496;13.482;2023-07-20T06:07:58;2.47;;;2.37;;
53931;SDS011;39844;52.496;13.482;2023-07-20T06:10:23;4.30;;;2.47;;
53931;SDS011;39844;52.496;13.482;2023-07-20T06:12:49;3.87;;;2.47;;
53931;SDS011;39844;52.496;13.482;2023-07-20T06:15:24;2.73;;;2.50;;
53931;SDS011;39844;52.496;13.482;2023-07-20T06:17:57;2.90;;;2.70;;
53931;SDS011;39844;52.496;13.482;2023-07-20T06:20:22;3.40;;;3.10;;
53931;SDS011;39844;52.496;13.482;2023-07-20T06:22:48;3.10;;;2.90;;
53931;SDS011;39844;52.496;13.482;2023-07-20T06:25:13;2.73;;;2.53;;
53931;SDS011;39844;52.496;13.482;2023-07-20T06:27:39;2.60;;;2.40;;
53931;SDS011;39844;52.496;13.482;2023-07-20T06:30:04;4.07;;;3.17;;
53931;SDS011;39844;52.496;13.482;2023-07-20T06:32:30;2.77;;;2.57;;
53931;SDS011;39844;52.496;13.482;2023-07-20T06:34:56;3.27;;;3.00;;
53931;SDS011;39844;52.496;13.482;2023-07-20T06:37:23;2.77;;;2.57;;
53931;SDS011;39844;52.496;13.482;2023-07-20T06:39:49;2.67;;;2.47;;
53931;SDS011;39844;52.496;13.482;2023-07-20T06:42:14;2.73;;;2.53;;
53931;SDS011;39844;52.496;13.482;2023-07-20T06:44:39;2.80;;;2.50;;
53931;SDS011;39844;52.496;13.482;2023-07-20T06:47:04;3.00;;;2.80;;
53931;SDS011;39844;52.496;13.482;2023-07-20T06:49:30;2.67;;;2.50;;
53931;SDS011;39844;52.496;13.482;2023-07-20T06:51:56;2.63;;;2.43;;
53931;SDS011;39844;52.496;13.482;2023-07-20T06:54:21;2.50;;;2.30;;
53931;SDS011;39844;52.496;13.482;2023-07-20T06:56:47;3.70;;;1.97;;
53931;SDS011;39844;52.496;13.482;2023-07-20T06:59:12;2.93;;;1.80;;
53931;SDS011;39844;52.496;13.482;2023-07-20T07:01:38;2.40;;;2.20;;
53931;SDS011;39844;52.496;13.482;2023-07-20T07:04:03;1.63;;;1.60;;
53931;SDS011;39844;52.496;13.482;2023-07-20T07:06:28;2.03;;;1.90;;
53931;SDS011;39844;52.496;13.482;2023-07-20T07:08:54;3.10;;;1.83;;
53931;SDS011;39844;52.496;13.482;2023-07-20T07:11:20;1.63;;;1.53;;
53931;SDS011;39844;52.496;13.482;2023-07-20T07:13:46;1.80;;;1.50;;
53931;SDS011;39844;52.496;13.482;2023-07-20T07:16:11;1.60;;;1.50;;
53931;SDS011;39844;52.496;13.482;2023-07-20T07:18:36;1.60;;;1.50;;
53931;SDS011;39844;52.496;13.482;2023-07-20T07:21:01;2.07;;;1.40;;
53931;SDS011;39844;52.496;13.482;2023-07-20T07:23:27;1.17;;;1.17;;
53931;SDS011;39844;52.496;13.482;2023-07-20T07:25:52;2.20;;;1.50;;
53931;SDS011;39844;52.496;13.482;2023-07-20T07:28:17;2.10;;;1.50;;
53931;SDS011;39844;52.496;13.482;2023-07-20T07:30:42;2.30;;;1.50;;
53931;SDS011;39844;52.496;13.482;2023-07-20T07:33:08;1.60;;;1.10;;
53931;SDS011;39844;52.496;13.482;2023-07-20T07:35:33;1.00;;;1.00;;
53931;SDS011;39844;52.496;13.482;2023-07-20T07:37:58;8.20;;;1.10;;
53931;SDS011;39844;52.496;13.482;2023-07-20T07:40:24;1.33;;;1.20;;
53931;SDS011;39844;52.496;13.482;2023-07-20T07:42:49;1.00;;;1.00;;
53931;SDS011;39844;52.496;13.482;2023-07-20T07:45:14;1.03;;;1.03;;
53931;SDS011;39844;52.496;13.482;2023-07-20T07:47:40;1.73;;;1.00;;
53931;SDS011;39844;52.496;13.482;2023-07-20T07:50:05;0.83;;;0.83;;
53931;SDS011;39844;52.496;13.482;2023-07-20T07:52:31;0.80;;;0.80;;
53931;SDS011;39844;52.496;13.482;2023-07-20T07:54:56;1.00;;;1.00;;
53931;SDS011;39844;52.496;13.482;2023-07-20T07:57:21;1.00;;;1.00;;
53931;SDS011;39844;52.496;13.482;2023-07-20T07:59:47;0.73;;;0.70;;
53931;SDS011;39844;52.496;13.482;2023-07-20T08:02:12;0.90;;;0.90;;
53931;SDS011;39844;52.496;13.482;2023-07-20T08:04:37;1.20;;;0.80;;
53931;SDS011;39844;52.496;13.482;2023-07-20T08:07:03;0.80;;;0.80;;
53931;SDS011;39844;52.496;13.482;2023-07-20T08:09:29;0.97;;;0.97;;
53931;SDS011;39844;52.496;13.482;2023-07-20T08:11:54;0.90;;;0.90;;
53931;SDS011;39844;52.496;13.482;2023-07-20T08:14:19;0.80;;;0.80;;
53931;SDS011;39844;52.496;13.482;2023-07-20T08:16:45;0.83;;;0.80;;
53931;SDS011;39844;52.496;13.482;2023-07-20T08:19:10;0.90;;;0.90;;
53931;SDS011;39844;52.496;13.482;2023-07-20T08:21:35;1.73;;;1.10;;
53931;SDS011;39844;52.496;13.482;2023-07-20T08:24:01;0.83;;;0.83;;
53931;SDS011;39844;52.496;13.482;2023-07-20T08:26:26;0.63;;;0.63;;
53931;SDS011;39844;52.496;13.482;2023-07-20T08:28:51;0.60;;;0.60;;
53931;SDS011;39844;52.496;13.482;2023-07-20T08:31:16;0.93;;;0.93;;
53931;SDS011;39844;52.496;13.482;2023-07-20T08:33:42;0.70;;;0.70;;
53931;SDS011;39844;52.496;13.482;2023-07-20T08:36:07;0.90;;;0.90;;
53931;SDS011;39844;52.496;13.482;2023-07-20T08:38:33;0.90;;;0.90;;
53931;SDS011;39844;52.496;13.482;2023-07-20T08:40:58;0.90;;;0.90;;
53931;SDS011;39844;52.496;13.482;2023-07-20T08:43:23;1.07;;;0.97;;
53931;SDS011;39844;52.496;13.482;2023-07-20T08:45:49;0.80;;;0.80;;
53931;SDS011;39844;52.496;13.482;2023-07-20T08:48:18;0.90;;;0.90;;
53931;SDS011;39844;52.496;13.482;2023-07-20T08:50:45;1.77;;;0.80;;
53931;SDS011;39844;52.496;13.482;2023-07-20T08:53:14;0.83;;;0.83;;
53931;SDS011;39844;52.496;13.482;2023-07-20T08:55:39;1.17;;;1.13;;
53931;SDS011;39844;52.496;13.482;2023-07-20T08:58:05;0.80;;;0.80;;
53931;SDS011;39844;52.496;13.482;2023-07-20T09:00:34;0.60;;;0.60;;
53931;SDS011;39844;52.496;13.482;2023-07-20T09:03:01;0.70;;;0.70;;
53931;SDS011;39844;52.496;13.482;2023-07-20T09:05:28;0.90;;;0.90;;
53931;SDS011;39844;52.496;13.482;2023-07-20T09:07:53;0.70;;;0.70;;
53931;SDS011;39844;52.496;13.482;2023-07-20T09:10:21;0.80;;;0.80;;
53931;SDS011;39844;52.496;13.482;2023-07-20T09:12:48;0.83;;;0.83;;
53931;SDS011;39844;52.496;13.482;2023-07-20T09:15:14;0.90;;;0.90;;
53931;SDS011;39844;52.496;13.482;2023-07-20T09:17:39;0.70;;;0.70;;
53931;SDS011;39844;52.496;13.482;2023-07-20T09:20:11;0.80;;;0.80;;
53931;SDS011;39844;52.496;13.482;2023-07-20T09:22:36;0.53;;;0.53;;
53931;SDS011;39844;52.496;13.482;2023-07-20T09:25:03;0.77;;;0.77;;
53931;SDS011;39844;52.496;13.482;2023-07-20T09:27:44;0.60;;;0.60;;
53931;SDS011;39844;52.496;13.482;2023-07-20T09:30:11;0.60;;;0.60;;
53931;SDS011;39844;52.496;13.482;2023-07-20T09:32:39;0.60;;;0.60;;
53931;SDS011;39844;52.496;13.482;2023-07-20T09:35:04;1.70;;;0.63;;
53931;SDS011;39844;52.496;13.482;2023-07-20T09:37:30;0.73;;;0.73;;
53931;SDS011;39844;52.496;13.482;2023-07-20T09:39:58;0.70;;;0.70;;
53931;SDS011;39844;52.496;13.482;2023-07-20T09:42:24;0.70;;;0.70;;
53931;SDS011;39844;52.496;13.482;2023-07-20T09:44:50;1.43;;;0.73;;
53931;SDS011;39844;52.496;13.482;2023-07-20T09:47:22;0.50;;;0.50;;
53931;SDS011;39844;52.496;13.482;2023-07-20T09:49:48;0.70;;;0.70;;
53931;SDS011;39844;52.496;13.482;2023-07-20T09:52:13;0.60;;;0.60;;
53931;SDS011;39844;52.496;13.482;2023-07-20T09:54:40;0.60;;;0.60;;
53931;SDS011;39844;52.496;13.482;2023-07-20T09:57:09;1.50;;;0.80;;
53931;SDS011;39844;52.496;13.482;2023-07-20T09:59:35;0.50;;;0.50;;
53931;SDS011;39844;52.496;13.482;2023-07-20T10:02:01;0.73;;;0.73;;
53931;SDS011;39844;52.496;13.482;2023-07-20T10:04:29;0.57;;;0.57;;
53931;SDS011;39844;52.496;13.482;2023-07-20T10:06:56;0.68;;;0.68;;
53931;SDS011;39844;52.496;13.482;2023-07-20T10:09:25;1.30;;;0.57;;
53931;SDS011;39844;52.496;13.482;2023-07-20T10:11:51;0.83;;;0.60;;
53931;SDS011;39844;52.496;13.482;2023-07-20T10:14:19;0.73;;;0.73;;
53931;SDS011;39844;52.496;13.482;2023-07-20T10:16:51;0.80;;;0.80;;
53931;SDS011;39844;52.496;13.482;2023-07-20T10:19:23;0.73;;;0.73;;
53931;SDS011;39844;52.496;13.482;2023-07-20T10:21:57;0.70;;;0.70;;
53931;SDS011;39844;52.496;13.482;2023-07-20T10:24:25;0.80;;;0.80;;
53931;SDS011;39844;52.496;13.482;2023-07-20T10:26:52;0.90;;;0.90;;
53931;SDS011;39844;52.496;13.482;2023-07-20T10:29:19;0.77;;;0.77;;
53931;SDS011;39844;52.496;13.482;2023-07-20T10:31:45;0.80;;;0.80;;
53931;SDS011;39844;52.496;13.482;2023-07-20T10:34:11;0.80;;;0.80;;
53931;SDS011;39844;52.496;13.482;2023-07-20T10:36:43;1.00;;;1.00;;
53931;SDS011;39844;52.496;13.482;2023-07-20T10:39:13;1.13;;;0.70;;
53931;SDS011;39844;52.496;13.482;2023-07-20T10:41:47;0.67;;;0.67;;
53931;SDS011;39844;52.496;13.482;2023-07-20T10:44:13;0.80;;;0.80;;
53931;SDS011;39844;52.496;13.482;2023-07-20T10:46:44;0.90;;;0.90;;
53931;SDS011;39844;52.496;13.482;2023-07-20T10:49:11;1.97;;;0.90;;
53931;SDS011;39844;52.496;13.482;2023-07-20T10:51:48;0.80;;;0.80;;
53931;SDS011;39844;52.496;13.482;2023-07-20T10:56:49;0.77;;;0.77;;
53931;SDS011;39844;52.496;13.482;2023-07-20T11:01:50;2.57;;;0.90;;
53931;SDS011;39844;52.496;13.482;2023-07-20T11:04:40;0.93;;;0.90;;
53931;SDS011;39844;52.496;13.482;2023-07-20T11:07:09;1.00;;;1.00;;
53931;SDS011;39844;52.496;13.482;2023-07-20T11:09:35;0.90;;;0.90;;
53931;SDS011;39844;52.496;13.482;2023-07-20T11:12:14;0.90;;;0.90;;
53931;SDS011;39844;52.496;13.482;2023-07-20T11:14:53;0.80;;;0.80;;
53931;SDS011;39844;52.496;13.482;2023-07-20T11:17:19;1.30;;;1.20;;
53931;SDS011;39844;52.496;13.482;2023-07-20T11:19:47;1.00;;;1.00;;
53931;SDS011;39844;52.496;13.482;2023-07-20T11:22:13;0.83;;;0.83;;
53931;SDS011;39844;52.496;13.482;2023-07-20T11:24:42;0.70;;;0.70;;
53931;SDS011;39844;52.496;13.482;2023-07-20T11:27:07;2.80;;;0.90;;
53931;SDS011;39844;52.496;13.482;2023-07-20T11:29:34;1.80;;;0.90;;
53931;SDS011;39844;52.496;13.482;2023-07-20T11:32:00;1.00;;;0.90;;
53931;SDS011;39844;52.496;13.482;2023-07-20T11:34:26;0.97;;;0.73;;
53931;SDS011;39844;52.496;13.482;2023-07-20T11:36:52;1.90;;;1.00;;
53931;SDS011;39844;52.496;13.482;2023-07-20T11:39:17;0.70;;;0.70;;
53931;SDS011;39844;52.496;13.482;2023-07-20T11:41:46;1.17;;;1.00;;
53931;SDS011;39844;52.496;13.482;2023-07-20T11:44:12;0.80;;;0.80;;
53931;SDS011;39844;52.496;13.482;2023-07-20T11:46:37;1.33;;;0.83;;
53931;SDS011;39844;52.496;13.482;2023-07-20T11:49:03;0.90;;;0.90;;
53931;SDS011;39844;52.496;13.482;2023-07-20T11:51:29;0.70;;;0.70;;
53931;SDS011;39844;52.496;13.482;2023-07-20T11:53:57;1.73;;;0.80;;
53931;SDS011;39844;52.496;13.482;2023-07-20T11:56:23;0.50;;;0.50;;
53931;SDS011;39844;52.496;13.482;2023-07-20T11:58:49;1.77;;;0.70;;
53931;SDS011;39844;52.496;13.482;2023-07-20T12:01:19;0.70;;;0.70;;
53931;SDS011;39844;52.496;13.482;2023-07-20T12:03:44;0.80;;;0.80;;
53931;SDS011;39844;52.496;13.482;2023-07-20T12:06:10;0.70;;;0.70;;
53931;SDS011;39844;52.496;13.482;2023-07-20T12:08:39;0.80;;;0.80;;
53931;SDS011;39844;52.496;13.482;2023-07-20T12:11:04;0.40;;;0.40;;
53931;SDS011;39844;52.496;13.482;2023-07-20T12:13:41;0.50;;;0.50;;
53931;SDS011;39844;52.496;13.482;2023-07-20T12:16:14;0.50;;;0.50;;
53931;SDS011;39844;52.496;13.482;2023-07-20T12:18:41;0.80;;;0.80;;
53931;SDS011;39844;52.496;13.482;2023-07-20T12:21:07;0.60;;;0.57;;
53931;SDS011;39844;52.496;13.482;2023-07-20T12:23:39;0.70;;;0.70;;
53931;SDS011;39844;52.496;13.482;2023-07-20T12:26:06;0.93;;;0.68;;
53931;SDS011;39844;52.496;13.482;2023-07-20T12:28:32;0.98;;;0.93;;
53931;SDS011;39844;52.496;13.482;2023-07-20T12:30:57;4.70;;;0.80;;
53931;SDS011;39844;52.496;13.482;2023-07-20T12:33:22;0.50;;;0.50;;
53931;SDS011;39844;52.496;13.482;2023-07-20T12:35:48;0.55;;;0.55;;
53931;SDS011;39844;52.496;13.482;2023-07-20T12:38:14;0.73;;;0.73;;
53931;SDS011;39844;52.496;13.482;2023-07-20T12:40:40;0.50;;;0.50;;
53931;SDS011;39844;52.496;13.482;2023-07-20T12:43:05;0.57;;;0.50;;
53931;SDS011;39844;52.496;13.482;2023-07-20T12:45:30;0.45;;;0.45;;
53931;SDS011;39844;52.496;13.482;2023-07-20T12:47:56;0.68;;;0.68;;
53931;SDS011;39844;52.496;13.482;2023-07-20T12:50:21;1.60;;;0.80;;
53931;SDS011;39844;52.496;13.482;2023-07-20T12:52:46;0.73;;;0.70;;
53931;SDS011;39844;52.496;13.482;2023-07-20T12:55:12;1.75;;;0.63;;
53931;SDS011;39844;52.496;13.482;2023-07-20T12:57:37;0.65;;;0.65;;
53931;SDS011;39844;52.496;13.482;2023-07-20T13:00:03;0.60;;;0.60;;
53931;SDS011;39844;52.496;13.482;2023-07-20T13:02:31;0.75;;;0.75;;
53931;SDS011;39844;52.496;13.482;2023-07-20T13:04:58;1.58;;;1.00;;
53931;SDS011;39844;52.496;13.482;2023-07-20T13:07:56;0.85;;;0.70;;
53931;SDS011;39844;52.496;13.482;2023-07-20T13:10:15;0.70;;;0.70;;
53931;SDS011;39844;52.496;13.482;2023-07-20T13:12:40;0.70;;;0.70;;
53931;SDS011;39844;52.496;13.482;2023-07-20T13:15:06;0.50;;;0.50;;
53931;SDS011;39844;52.496;13.482;2023-07-20T13:17:33;0.50;;;0.50;;
53931;SDS011;39844;52.496;13.482;2023-07-20T13:19:59;0.50;;;0.50;;
53931;SDS011;39844;52.496;13.482;2023-07-20T13:22:25;0.45;;;0.45;;
53931;SDS011;39844;52.496;13.482;2023-07-20T13:24:50;0.50;;;0.50;;
53931;SDS011;39844;52.496;13.482;2023-07-20T13:27:16;0.50;;;0.50;;
53931;SDS011;39844;52.496;13.482;2023-07-20T13:29:42;0.50;;;0.50;;
53931;SDS011;39844;52.496;13.482;2023-07-20T13:32:08;0.63;;;0.63;;
53931;SDS011;39844;52.496;13.482;2023-07-20T13:34:33;0.65;;;0.60;;
53931;SDS011;39844;52.496;13.482;2023-07-20T13:36:59;0.55;;;0.55;;
53931;SDS011;39844;52.496;13.482;2023-07-20T13:39:25;1.27;;;0.60;;
53931;SDS011;39844;52.496;13.482;2023-07-20T13:41:50;0.50;;;0.50;;
53931;SDS011;39844;52.496;13.482;2023-07-20T13:44:15;0.45;;;0.45;;
53931;SDS011;39844;52.496;13.482;2023-07-20T13:46:41;0.55;;;0.55;;
53931;SDS011;39844;52.496;13.482;2023-07-20T13:49:06;0.55;;;0.55;;
53931;SDS011;39844;52.496;13.482;2023-07-20T13:51:31;1.10;;;0.50;;
53931;SDS011;39844;52.496;13.482;2023-07-20T13:53:57;0.40;;;0.40;;
53931;SDS011;39844;52.496;13.482;2023-07-20T13:56:22;0.60;;;0.60;;
53931;SDS011;39844;52.496;13.482;2023-07-20T13:58:48;0.60;;;0.60;;
53931;SDS011;39844;52.496;13.482;2023-07-20T14:01:14;0.50;;;0.50;;
53931;SDS011;39844;52.496;13.482;2023-07-20T14:03:39;0.50;;;0.50;;
53931;SDS011;39844;52.496;13.482;2023-07-20T14:06:04;0.55;;;0.55;;
53931;SDS011;39844;52.496;13.482;2023-07-20T14:08:32;0.68;;;0.68;;
53931;SDS011;39844;52.496;13.482;2023-07-20T14:10:57;0.63;;;0.63;;
53931;SDS011;39844;52.496;13.482;2023-07-20T14:13:22;0.70;;;0.70;;
53931;SDS011;39844;52.496;13.482;2023-07-20T14:15:48;0.60;;;0.60;;
53931;SDS011;39844;52.496;13.482;2023-07-20T14:18:13;0.70;;;0.70;;
53931;SDS011;39844;52.496;13.482;2023-07-20T14:20:38;0.52;;;0.52;;
53931;SDS011;39844;52.496;13.482;2023-07-20T14:23:03;0.50;;;0.50;;
53931;SDS011;39844;52.496;13.482;2023-07-20T14:25:29;0.45;;;0.45;;
53931;SDS011;39844;52.496;13.482;2023-07-20T14:27:54;0.95;;;0.50;;
53931;SDS011;39844;52.496;13.482;2023-07-20T14:30:19;0.70;;;0.70;;
53931;SDS011;39844;52.496;13.482;2023-07-20T14:32:45;0.50;;;0.50;;
53931;SDS011;39844;52.496;13.482;2023-07-20T14:35:10;5.57;;;0.70;;
53931;SDS011;39844;52.496;13.482;2023-07-20T14:37:35;0.50;;;0.50;;
53931;SDS011;39844;52.496;13.482;2023-07-20T14:40:00;0.93;;;0.93;;
53931;SDS011;39844;52.496;13.482;2023-07-20T14:42:26;0.38;;;0.38;;
53931;SDS011;39844;52.496;13.482;2023-07-20T14:44:51;0.68;;;0.68;;